Yankton, SD (57078)

11:24 AM CDT on October 01, 2014 (GMT -0500)
Gurney Municipal | Change Station
CLOSE
Current Station
Airport
Location: Yankton,
Elevation: 1306 ft
Nearby Weather Stations

Elev 1306 ft 42.92 °N, 97.39 °W | Updated 1 hour ago

Overcast
Overcast
57 °F
Feels Like 57 °F
N
8
Wind Variable Wind from East

Today
High -- | Low -- °F
--% Chance of Precip.
Yesterday
High -- | Low -- °F
Precip. -- in
7:26 AM 7:10 PM
Waxing Crescent, 49% visible
Pressure 29.79 in
Visibility 1.5 miles
Clouds Mostly Cloudy 900 ft
Mostly Cloudy 2300 ft
Overcast 3600 ft
Dew Point 55 °F
Humidity 94%
Rainfall 0.15 in
Snow Depth 0 in , 1 in
UV 1 out of 12
Pollen 2.80 out of 12
Air Quality Not available.
Flu Activity Not available.
METAR KYKN 301435Z AUTO 10007KT 1 1/2SM BKN009 BKN023 OVC036 14/13 A2979 RMK AO1 P0005

More Conditions Fewer Conditions

Pressure 29.79 in
Visibility 1.5 miles
Clouds Mostly Cloudy 900 ft
Mostly Cloudy 2300 ft
Overcast 3600 ft
Dew Point 55 °F
Humidity 94%
Rainfall 0.15 in
Snow Depth 0 in , 1 in
UV 1 out of 12
Pollen 2.80 out of 12
Air Quality Not available.
Flu Activity Not available.
METAR KYKN 301435Z AUTO 10007KT 1 1/2SM BKN009 BKN023 OVC036 14/13 A2979 RMK AO1 P0005

More Conditions Fewer Conditions

10-Day Weather Forecast

Almanac

Astronomy

Oct. 01, 2014 Rise Set
Actual Time 7:26 AM CDT 7:10 PM CDT
Civil Twilight 6:58 AM CDT 7:38 PM CDT
Nautical Twilight 6:25 AM CDT 8:11 PM CDT
Astronomical Twilight 5:52 AM CDT 8:44 PM CDT
Moon 2:35 PM CDT No Moon Set
Length of Visible Light 12h 40m
Length of Day
11h 43m
Tomorrow will be 2m 53s shorter.
Waxing Crescent, 49% of the Moon is Illuminated
Today
Waxing Crescent
Oct 1
First Quarter
Oct 8
Full
Oct 15
Last Quarter
Oct 23
New

Today's Extremes

State Highs State Lows

Community

WunderPhotos

Upload Photos

1,757,980 photos uploaded!

WunderBlogs® & News

Nearby

Snow Depth

Station Depth Elevation
North Rapid Creek 0 in 6130 ft
Blind Park 1 in 6890 ft

Earthquake Activity

City Distance Mag. Time & Date
No recent earthquake activity has been reported nearby.
Minimum magnitude displayed is 2.5.

Coastal Water Temperatures

Place Temperature
No Stations Reporting

Nearby Weather Stations